Time;durP1;ratioP1;P1;durP2;ratioP2;P2;SDS_P1;SDS_P2;PMS_P1;PMS_P2;Temp;Humidity;BMP_temperature;BMP_pressure;BME280_temperature;BME280_humidity;BME280_pressure;Samples;Min_cycle;Max_cycle;Signal;HPM_P1;HPM_P2
2022/09/30 00:00:56;;;;;;;25.37;12.57;;;;;;;7.30;98.70;100082.77;5117489;57;1141379;-66
2022/09/30 00:06:07;;;;;;;91.20;31.07;;;;;;;7.21;98.48;100075.52;5117397;57;1141158;-66
2022/09/30 00:11:16;;;;;;;57.20;22.20;;;;;;;7.12;98.62;100083.59;5117485;57;1141143;-65
2022/09/30 00:16:24;;;;;;;53.77;22.20;;;;;;;7.00;98.61;100083.14;5117518;57;1138977;-64
2022/09/30 00:21:30;;;;;;;56.63;22.37;;;;;;;7.00;99.11;100081.83;4973935;59;1141133;-68
2022/09/30 00:26:36;;;;;;;41.73;21.33;;;;;;;6.97;98.69;100077.63;5117572;57;1141050;-67
2022/09/30 00:31:42;;;;;;;37.17;19.47;;;;;;;7.03;99.47;100082.91;5117550;57;1141198;-67
2022/09/30 00:36:52;;;;;;;30.80;16.53;;;;;;;7.06;99.50;100083.54;5117327;57;1141191;-66
2022/09/30 00:42:01;;;;;;;25.80;16.27;;;;;;;7.03;99.35;100092.11;5117406;57;1138974;-66
2022/09/30 00:47:31;;;;;;;29.53;16.37;;;;;;;6.99;99.53;100091.98;5117424;57;1139169;-68
2022/09/30 00:52:39;;;;;;;23.07;13.80;;;;;;;6.98;99.21;100083.72;5078173;57;1139141;-67
2022/09/30 00:57:44;;;;;;;25.13;15.53;;;;;;;6.92;98.80;100093.33;5115982;57;1139034;-66
2022/09/30 01:02:52;;;;;;;22.37;14.80;;;;;;;6.90;99.45;100101.33;5083230;57;1139300;-65
2022/09/30 01:08:00;;;;;;;23.33;14.57;;;;;;;6.91;99.70;100092.49;5116739;57;1136896;-65
2022/09/30 01:13:07;;;;;;;30.87;14.47;;;;;;;6.83;99.70;100089.56;5117025;57;1137214;-64
2022/09/30 01:18:20;;;;;;;23.23;12.67;;;;;;;6.69;99.68;100087.89;5116858;57;1136964;-65
2022/09/30 01:23:56;;;;;;;27.63;14.87;;;;;;;6.71;100.00;100102.24;4866371;60;1139095;-68
2022/09/30 01:29:30;;;;;;;32.50;18.27;;;;;;;6.85;100.00;100098.19;5013822;58;1139148;-65
2022/09/30 01:34:53;;;;;;;;;;;;;;;6.89;100.00;100098.80;4895942;59;1143196;-66
2022/09/30 01:40:24;;;;;;;55.77;25.43;;;;;;;6.91;100.00;100103.01;4925856;59;976373;-69
2022/09/30 01:45:34;;;;;;;36.03;21.37;;;;;;;6.87;100.00;100108.13;4806124;60;1139227;-68
2022/09/30 01:50:57;;;;;;;30.37;17.95;;;;;;;6.75;100.00;100112.05;4878041;59;1143237;-68
2022/09/30 01:56:08;;;;;;;31.20;17.30;;;;;;;6.81;100.00;100116.90;4840343;59;1143304;-69
2022/09/30 02:01:39;;;;;;;29.37;17.90;;;;;;;6.88;100.00;100116.36;4870653;60;1143261;-69
2022/09/30 02:06:49;;;;;;;28.17;19.40;;;;;;;6.95;100.00;100120.73;4874028;60;1143447;-67
2022/09/30 02:11:59;;;;;;;30.43;19.53;;;;;;;6.98;100.00;100112.17;4979816;57;1143228;-70
2022/09/30 02:17:24;;;;;;;29.17;17.67;;;;;;;7.01;100.00;100119.84;5058129;58;1141134;-65
2022/09/30 02:22:44;;;;;;;33.13;17.47;;;;;;;6.99;100.00;100116.48;5058024;58;1143296;-66
2022/09/30 02:28:04;;;;;;;29.50;19.17;;;;;;;6.95;100.00;100116.31;5058183;58;1141677;-68
2022/09/30 02:33:32;;;;;;;30.87;18.73;;;;;;;6.97;100.00;100134.14;5058176;58;1141127;-68
2022/09/30 02:38:44;;;;;;;35.00;19.13;;;;;;;6.82;100.00;100125.16;5058152;58;1141607;-67
2022/09/30 02:43:51;;;;;;;35.80;21.07;;;;;;;6.86;100.00;100121.38;5056878;57;1141087;-68
2022/09/30 02:49:07;;;;;;;47.87;25.50;;;;;;;6.92;100.00;100108.64;5058180;57;1141125;-69
2022/09/30 02:54:46;;;;;;;36.93;22.03;;;;;;;7.05;100.00;100121.77;5058069;57;1141252;-70
2022/09/30 02:59:53;;;;;;;35.05;21.33;;;;;;;7.22;100.00;100133.27;5060232;58;1143268;-68
2022/09/30 03:04:59;;;;;;;30.60;19.50;;;;;;;7.35;100.00;100145.09;5060613;57;1143168;-69
2022/09/30 03:10:14;;;;;;;35.33;21.23;;;;;;;7.18;100.00;100158.61;5060753;57;1143237;-65
2022/09/30 03:15:45;;;;;;;30.20;20.23;;;;;;;7.16;100.00;100147.34;5058933;57;1143336;-68
2022/09/30 03:21:27;;;;;;;39.13;23.18;;;;;;;7.19;100.00;100144.00;5061219;58;1143242;-68
2022/09/30 03:27:02;;;;;;;48.77;24.40;;;;;;;7.26;100.00;100140.02;5061260;57;1143252;-69
2022/09/30 03:32:22;;;;;;;42.90;23.70;;;;;;;7.37;100.00;100130.88;4956392;59;1143484;-68
2022/09/30 03:37:53;;;;;;;41.53;22.97;;;;;;;7.38;100.00;100136.98;4980511;58;1143334;-71
2022/09/30 03:43:07;;;;;;;40.53;23.17;;;;;;;7.46;100.00;100141.72;4946194;58;1141395;-69
2022/09/30 03:48:15;;;;;;;34.87;22.47;;;;;;;7.51;100.00;100139.59;4837360;61;1141067;-70
2022/09/30 03:53:22;;;;;;;36.23;21.43;;;;;;;7.57;100.00;100140.48;4915631;60;1141138;-67
2022/09/30 03:58:27;;;;;;;37.97;24.80;;;;;;;7.50;100.00;100140.53;4915527;59;1141270;-68
2022/09/30 04:03:34;;;;;;;36.20;23.20;;;;;;;7.43;100.00;100142.78;4915530;59;1139241;-67
2022/09/30 04:08:40;;;;;;;47.58;28.00;;;;;;;7.46;100.00;100145.67;5091989;57;1141166;-68
2022/09/30 04:13:46;;;;;;;46.73;26.83;;;;;;;7.51;100.00;100148.33;5149301;57;1141109;-70
2022/09/30 04:18:52;;;;;;;49.23;22.30;;;;;;;7.62;100.00;100155.48;5105165;58;1141434;-65
2022/09/30 04:24:00;;;;;;;45.37;24.37;;;;;;;7.68;100.00;100166.87;5139522;57;1141144;-68
2022/09/30 04:29:06;;;;;;;43.53;24.83;;;;;;;7.69;100.00;100168.55;5104102;57;1141188;-64
2022/09/30 04:34:12;;;;;;;36.23;21.67;;;;;;;7.65;100.00;100169.71;5138352;57;1141729;-71
2022/09/30 04:39:17;;;;;;;45.90;22.87;;;;;;;7.65;100.00;100174.98;5147124;56;1141593;-67
2022/09/30 04:44:23;;;;;;;39.93;25.53;;;;;;;7.63;100.00;100189.59;5149665;56;1141603;-65
2022/09/30 04:49:28;;;;;;;40.83;23.13;;;;;;;7.69;100.00;100193.56;5099307;57;1141205;-69
2022/09/30 04:54:35;;;;;;;37.13;23.57;;;;;;;7.61;100.00;100186.22;5104174;57;1141410;-70
2022/09/30 04:59:42;;;;;;;33.23;21.40;;;;;;;7.52;100.00;100188.16;5119701;57;1141049;-68
2022/09/30 05:04:49;;;;;;;38.33;22.87;;;;;;;7.54;100.00;100181.01;5117128;57;1138994;-69
2022/09/30 05:09:55;;;;;;;48.92;24.02;;;;;;;7.58;100.00;100190.85;5116965;57;1139158;-68
2022/09/30 05:15:00;;;;;;;40.50;27.97;;;;;;;7.71;100.00;100205.66;5117338;57;1143184;-66
2022/09/30 05:20:09;;;;;;;45.07;28.43;;;;;;;7.81;100.00;100205.84;5116466;57;1143168;-71
2022/09/30 05:25:15;;;;;;;50.70;30.27;;;;;;;7.82;100.00;100203.58;5117203;57;1143175;-69
2022/09/30 05:30:20;;;;;;;40.97;26.87;;;;;;;7.73;100.00;100207.72;5108930;57;1143197;-65
2022/09/30 05:35:26;;;;;;;44.33;26.27;;;;;;;7.71;100.00;100206.98;5065653;57;1143133;-64
2022/09/30 05:40:32;;;;;;;47.83;29.20;;;;;;;7.72;100.00;100213.09;5114218;57;1143173;-67
2022/09/30 05:45:38;;;;;;;42.10;28.03;;;;;;;7.83;100.00;100216.27;4962762;58;1143354;-66
2022/09/30 05:50:49;;;;;;;54.63;31.33;;;;;;;7.99;100.00;100229.55;4972058;57;1143273;-69
2022/09/30 05:55:54;;;;;;;50.37;32.17;;;;;;;8.01;100.00;100228.97;5007084;58;1143475;-66
2022/09/30 06:01:10;;;;;;;68.37;38.27;;;;;;;7.99;100.00;100232.66;5075380;56;1143219;-68
2022/09/30 06:06:18;;;;;;;52.63;28.73;;;;;;;8.00;100.00;100231.71;5072560;58;1143482;-67
2022/09/30 06:11:23;;;;;;;51.10;28.37;;;;;;;7.95;100.00;100232.50;5079149;58;1143202;-64
2022/09/30 06:16:30;;;;;;;68.60;35.80;;;;;;;7.98;100.00;100242.83;5111775;58;1143198;-67
2022/09/30 06:21:36;;;;;;;53.70;32.47;;;;;;;7.97;100.00;100244.62;5119410;57;1143531;-69
2022/09/30 06:26:42;;;;;;;52.00;29.30;;;;;;;8.01;100.00;100252.67;5126551;57;1143452;-67
2022/09/30 06:31:48;;;;;;;44.07;28.53;;;;;;;8.20;100.00;100264.06;5135144;57;1143141;-66
2022/09/30 06:36:53;;;;;;;60.57;36.50;;;;;;;8.42;100.00;100278.70;5148756;57;1143559;-70
2022/09/30 06:41:59;;;;;;;58.57;33.90;;;;;;;8.65;100.00;100285.42;5142980;57;1143372;-68
2022/09/30 06:47:05;;;;;;;67.00;44.80;;;;;;;8.84;100.00;100280.97;5143987;57;1143469;-69
2022/09/30 06:52:12;;;;;;;98.57;60.80;;;;;;;8.94;100.00;100287.23;5124646;57;1143421;-65
2022/09/30 06:57:21;;;;;;;72.93;42.73;;;;;;;9.02;100.00;100297.55;5149384;57;1143197;-67
2022/09/30 07:02:25;;;;;;;49.10;28.32;;;;;;;9.17;100.00;100296.41;5082401;57;1143199;-69
2022/09/30 07:07:33;;;;;;;47.00;26.67;;;;;;;9.29;100.00;100295.14;5053711;57;1143155;-66
2022/09/30 07:12:38;;;;;;;39.60;26.03;;;;;;;9.36;100.00;100303.78;4964644;59;1143226;-64
2022/09/30 07:17:43;;;;;;;38.27;26.17;;;;;;;9.48;100.00;100306.80;5085575;57;1143204;-69
2022/09/30 07:22:49;;;;;;;45.40;26.73;;;;;;;9.61;100.00;100304.09;5114646;57;1143177;-66
2022/09/30 07:27:55;;;;;;;51.20;28.73;;;;;;;9.67;100.00;100312.00;5081982;57;1143223;-68
2022/09/30 07:33:01;;;;;;;47.97;26.40;;;;;;;9.80;100.00;100318.84;5103194;57;1143178;-69
2022/09/30 07:38:09;;;;;;;32.40;22.90;;;;;;;9.97;100.00;100321.98;5102020;57;1143301;-67
2022/09/30 07:43:17;;;;;;;40.37;24.17;;;;;;;10.04;100.00;100321.87;4991133;57;1143312;-70
2022/09/30 07:53:47;;;;;;;38.37;23.07;;;;;;;10.26;100.00;100335.09;4987572;58;1145494;-66
2022/09/30 07:58:59;;;;;;;35.93;24.37;;;;;;;10.39;100.00;100341.09;4971557;58;1143439;-69
2022/09/30 08:04:07;;;;;;;39.73;25.85;;;;;;;10.41;100.00;100349.73;4984178;58;1143262;-70
2022/09/30 08:09:16;;;;;;;39.43;24.37;;;;;;;10.44;100.00;100349.98;5032178;58;1143230;-72
2022/09/30 08:14:27;;;;;;;38.20;22.80;;;;;;;10.37;100.00;100353.61;5032805;57;1143240;-65
2022/09/30 08:19:34;;;;;;;30.97;21.43;;;;;;;10.37;100.00;100358.90;5115296;57;1143217;-70
2022/09/30 08:24:39;;;;;;;37.23;24.90;;;;;;;10.33;100.00;100356.61;5049273;57;1143281;-65
2022/09/30 08:29:45;;;;;;;32.93;22.47;;;;;;;10.37;100.00;100360.22;5049192;57;1143439;-67
2022/09/30 08:34:51;;;;;;;34.30;22.93;;;;;;;10.44;100.00;100368.48;5049032;57;1143543;-70
2022/09/30 08:39:57;;;;;;;38.33;27.57;;;;;;;10.53;100.00;100369.94;5057009;56;1143163;-66
2022/09/30 08:45:23;;;;;;;41.77;31.67;;;;;;;10.68;100.00;100382.42;5066300;57;1143192;-72
2022/09/30 08:50:50;;;;;;;34.73;23.77;;;;;;;10.75;100.00;100369.52;5118024;57;1143179;-67
2022/09/30 08:55:56;;;;;;;37.03;23.25;;;;;;;10.92;100.00;100381.75;5119826;57;1145303;-66
2022/09/30 09:01:32;;;;;;;28.47;21.50;;;;;;;11.12;100.00;100389.39;5119945;57;1145505;-67
2022/09/30 09:07:14;;;;;;;36.73;22.30;;;;;;;11.26;100.00;100376.34;5119593;56;1145240;-69
2022/09/30 09:12:51;;;;;;;32.85;21.15;;;;;;;11.60;100.00;100384.49;4932569;59;1145379;-69
2022/09/30 09:18:32;;;;;;;37.07;19.17;;;;;;;11.92;100.00;100379.12;4956076;57;1145250;-66
2022/09/30 09:23:38;;;;;;;27.63;17.63;;;;;;;12.39;100.00;100375.50;4976263;58;1145590;-66
2022/09/30 09:29:12;;;;;;;25.33;16.33;;;;;;;12.64;100.00;100372.39;5091273;57;1145281;-70
2022/09/30 09:34:19;;;;;;;20.83;14.03;;;;;;;12.86;100.00;100369.97;4979328;58;1143252;-71
2022/09/30 09:39:38;;;;;;;16.07;12.37;;;;;;;13.24;100.00;100375.86;4995545;58;1143213;-65
2022/09/30 09:45:03;;;;;;;24.83;13.57;;;;;;;13.61;100.00;100374.62;5032930;58;1143328;-66
2022/09/30 09:50:32;;;;;;;13.77;10.00;;;;;;;13.81;100.00;100383.91;4911324;59;1143275;-66
2022/09/30 09:55:38;;;;;;;16.50;11.63;;;;;;;13.99;100.00;100385.69;4890293;60;1143295;-69
2022/09/30 10:06:16;;;;;;;13.13;8.73;;;;;;;14.19;100.00;100373.67;4907038;60;1141294;-68
2022/09/30 10:11:28;;;;;;;13.57;9.10;;;;;;;14.14;96.85;100367.45;4916149;58;1143324;-66
2022/09/30 10:16:38;;;;;;;15.60;7.07;;;;;;;14.08;96.87;100372.01;5066879;57;1141151;-69
2022/09/30 10:21:45;;;;;;;11.20;7.60;;;;;;;14.03;93.82;100378.27;5066910;57;1141115;-70
2022/09/30 10:26:50;;;;;;;8.97;6.30;;;;;;;13.97;90.22;100382.83;4947585;58;1141277;-66
2022/09/30 10:31:57;;;;;;;12.93;7.63;;;;;;;14.08;91.67;100375.50;4975911;59;1139220;-69
2022/09/30 10:37:21;;;;;;;13.58;7.70;;;;;;;14.24;92.58;100371.39;4989954;58;1141111;-69
2022/09/30 10:42:31;;;;;;;16.37;10.93;;;;;;;14.26;89.94;100368.94;5056358;57;1141108;-69
2022/09/30 10:47:46;;;;;;;16.97;12.43;;;;;;;14.24;90.49;100370.91;5060568;57;1143543;-69
2022/09/30 10:53:17;;;;;;;22.03;12.40;;;;;;;14.23;91.16;100373.21;5049673;57;1143211;-70
2022/09/30 10:58:39;;;;;;;17.50;11.17;;;;;;;14.27;89.63;100373.77;5037371;58;1143439;-71
2022/09/30 11:03:53;;;;;;;23.87;17.20;;;;;;;14.33;90.01;100379.84;4990028;58;1143389;-70
2022/09/30 11:09:06;;;;;;;;;;;;;;;14.24;90.43;100382.03;4960262;58;1143255;-65
2022/09/30 11:14:45;;;;;;;17.87;12.83;;;;;;;14.16;90.46;100385.44;4963002;58;976336;-69
2022/09/30 11:20:04;;;;;;;81.93;72.23;;;;;;;14.14;92.12;100364.79;4998714;58;1139177;-68
2022/09/30 11:25:19;;;;;;;12.60;10.03;;;;;;;14.14;92.12;100364.79;5043713;58;1141149;-67
2022/09/30 11:30:53;;;;;;;14.77;9.77;;;;;;;14.46;89.20;100374.22;4965361;57;1141147;-69
2022/09/30 11:36:12;;;;;;;17.02;8.33;;;;;;;14.46;87.54;100376.88;4985951;58;1139315;-68
2022/09/30 11:41:35;;;;;;;10.10;7.27;;;;;;;14.35;88.09;100368.57;4991323;58;1141084;-66
2022/09/30 11:47:13;;;;;;;9.27;7.87;;;;;;;14.22;87.55;100368.87;4921226;58;1141165;-65
2022/09/30 11:52:58;;;;;;;10.13;7.63;;;;;;;14.23;89.04;100366.56;5010856;58;1139039;-68
2022/09/30 11:58:14;;;;;;;9.17;6.43;;;;;;;14.52;88.17;100364.29;5043720;57;1141139;-68
2022/09/30 12:03:25;;;;;;;6.77;6.07;;;;;;;14.95;87.40;100363.14;5026688;57;1139095;-67
2022/09/30 12:08:48;;;;;;;10.80;6.37;;;;;;;15.20;83.77;100368.20;5045694;58;1139088;-69
2022/09/30 12:13:56;;;;;;;;;;;;;;;15.22;85.42;100370.72;5043559;58;1141028;-68
2022/09/30 12:19:11;;;;;;;9.30;6.43;;;;;;;15.19;83.64;100368.35;5024455;58;976412;-69
2022/09/30 12:24:31;;;;;;;10.47;6.10;;;;;;;15.13;82.68;100369.30;5059524;58;1136871;-70
2022/09/30 12:35:32;;;;;;;13.77;8.00;;;;;;;15.18;82.51;100362.67;5057923;57;1137157;-65
2022/09/30 12:40:50;;;;;;;13.30;7.60;;;;;;;15.36;84.08;100357.69;5056311;58;1139287;-65
2022/09/30 12:46:40;;;;;;;18.42;11.95;;;;;;;15.60;80.71;100353.56;5019095;57;1139318;-70
2022/09/30 12:51:56;;;;;;;14.90;10.90;;;;;;;15.79;81.07;100354.22;4934559;58;1143170;-69
2022/09/30 12:57:08;;;;;;;22.93;13.50;;;;;;;15.83;78.03;100356.08;5007072;58;1143380;-68
2022/09/30 13:02:30;;;;;;;16.53;9.20;;;;;;;15.70;80.72;100356.99;5056253;58;1143097;-66
2022/09/30 13:07:35;;;;;;;13.87;9.17;;;;;;;15.68;81.57;100347.81;5050245;57;1141124;-67
2022/09/30 13:12:46;;;;;;;10.70;9.20;;;;;;;15.55;80.33;100355.84;5008615;58;1141116;-68
2022/09/30 13:17:53;;;;;;;14.43;9.07;;;;;;;15.39;80.12;100356.55;4993984;57;1141014;-65
2022/09/30 13:23:00;;;;;;;11.48;9.86;;;;;;;15.32;81.55;100360.80;4982238;58;1141227;-68
2022/09/30 13:28:28;;;;;;;17.13;11.93;;;;;;;15.28;81.96;100364.27;4983663;58;1141458;-68
2022/09/30 13:34:08;;;;;;;12.23;8.67;;;;;;;15.26;82.37;100362.28;5045941;58;1143459;-65
2022/09/30 13:39:44;;;;;;;11.63;7.40;;;;;;;15.27;81.41;100365.78;5042901;57;1141045;-67
2022/09/30 13:45:05;;;;;;;10.73;6.80;;;;;;;15.24;80.78;100376.73;5084833;57;1141125;-67
2022/09/30 13:50:26;;;;;;;11.17;6.67;;;;;;;15.24;80.78;100376.73;5086962;56;1139062;-67
2022/09/30 13:55:49;;;;;;;19.03;7.77;;;;;;;15.20;82.16;100372.20;4991135;57;1139020;-66
2022/09/30 14:01:01;;;;;;;19.47;7.87;;;;;;;15.20;81.43;100370.87;5065158;57;1139048;-69
2022/09/30 14:06:35;;;;;;;10.93;7.53;;;;;;;15.31;83.49;100369.30;5121228;57;1139048;-66
2022/09/30 14:11:51;;;;;;;12.83;8.60;;;;;;;15.62;82.29;100367.58;5113651;57;1137147;-67
2022/09/30 14:17:20;;;;;;;11.50;8.23;;;;;;;15.87;80.57;100372.12;4963555;58;1141153;-65
2022/09/30 14:22:29;;;;;;;10.27;7.73;;;;;;;15.96;78.88;100372.99;5145136;56;1141115;-68
2022/09/30 14:27:55;;;;;;;13.03;10.70;;;;;;;16.01;79.63;100368.03;4987921;57;1141046;-68
2022/09/30 14:33:17;;;;;;;11.17;9.43;;;;;;;15.96;78.37;100362.33;5092549;57;1143281;-68
2022/09/30 14:38:31;;;;;;;14.53;8.90;;;;;;;15.87;77.97;100367.28;5089078;57;1141116;-66
2022/09/30 14:43:41;;;;;;;17.27;11.47;;;;;;;15.74;77.76;100372.50;5107727;57;1141061;-68
2022/09/30 14:48:49;;;;;;;8.93;7.00;;;;;;;15.70;78.69;100367.16;5095723;57;1143217;-65
2022/09/30 14:54:05;;;;;;;11.53;7.50;;;;;;;15.64;77.98;100370.44;5058634;58;1139040;-67
2022/09/30 14:59:26;;;;;;;13.63;9.87;;;;;;;15.60;78.17;100371.73;5080064;57;1141198;-64
2022/09/30 15:04:38;;;;;;;14.40;10.43;;;;;;;15.60;77.33;100375.73;5100289;57;1140968;-65
2022/09/30 15:09:49;;;;;;;14.05;9.20;;;;;;;15.66;78.01;100376.45;5099042;57;1143200;-66
2022/09/30 15:14:58;;;;;;;14.37;9.97;;;;;;;15.73;78.57;100385.52;5152154;57;1141713;-69
2022/09/30 15:20:27;;;;;;;15.17;11.00;;;;;;;15.79;78.91;100382.22;5152087;57;1141265;-66
2022/09/30 15:25:33;;;;;;;20.33;13.60;;;;;;;15.73;77.54;100382.02;4820486;61;1140741;-66
2022/09/30 15:30:42;;;;;;;15.83;9.60;;;;;;;15.67;78.47;100395.95;4821244;60;1141638;-66
2022/09/30 15:35:47;;;;;;;11.67;9.17;;;;;;;15.64;78.73;100398.92;4816623;61;1139229;-65
2022/09/30 15:41:05;;;;;;;12.13;9.20;;;;;;;15.63;78.94;100408.75;4816612;61;1139325;-68
2022/09/30 15:46:28;;;;;;;20.27;10.90;;;;;;;15.89;79.39;100411.44;4812136;61;1139386;-68
2022/09/30 15:51:43;;;;;;;21.33;10.90;;;;;;;16.04;79.46;100411.74;4820668;61;1141244;-68
2022/09/30 15:56:49;;;;;;;41.07;21.80;;;;;;;16.20;79.27;100414.48;4819459;61;1141370;-67
2022/09/30 16:01:57;;;;;;;36.10;24.33;;;;;;;15.91;79.00;100413.46;5000752;58;1141242;-69
2022/09/30 16:07:14;;;;;;;74.57;46.30;;;;;;;15.63;78.98;100419.91;5052255;58;1139105;-69
2022/09/30 16:12:26;;;;;;;227.78;83.30;;;;;;;15.33;79.65;100424.61;5029173;58;1143177;-68
2022/09/30 16:17:42;;;;;;;49.15;32.98;;;;;;;15.07;80.39;100429.85;5032015;58;1145269;-68
2022/09/30 16:22:53;;;;;;;9.50;6.87;;;;;;;14.87;81.30;100430.94;5032895;58;1143249;-68
2022/09/30 16:28:12;;;;;;;13.63;8.83;;;;;;;14.62;81.66;100425.83;4969019;59;1139097;-70
2022/09/30 16:33:18;;;;;;;44.47;22.13;;;;;;;14.43;82.19;100429.89;5114097;57;1141087;-67
2022/09/30 16:38:24;;;;;;;27.40;17.20;;;;;;;14.24;82.82;100434.75;5112394;57;1143292;-70
2022/09/30 16:43:31;;;;;;;19.13;13.20;;;;;;;14.07;83.46;100432.34;5111833;57;1143274;-67
2022/09/30 16:48:38;;;;;;;20.83;12.37;;;;;;;13.91;83.92;100425.93;5107999;57;1143215;-66
2022/09/30 16:53:46;;;;;;;113.77;55.10;;;;;;;13.86;84.44;100437.50;5108434;57;1143204;-66
2022/09/30 16:58:52;;;;;;;155.87;78.33;;;;;;;13.80;84.82;100444.21;5113085;57;1145386;-66
2022/09/30 17:03:59;;;;;;;114.00;59.43;;;;;;;13.69;85.41;100440.38;5113363;57;1145440;-66
2022/09/30 17:09:06;;;;;;;113.07;53.73;;;;;;;13.58;85.93;100449.84;5125969;56;1145431;-69
2022/09/30 17:14:11;;;;;;;95.83;44.50;;;;;;;13.43;86.37;100441.93;5137293;57;1145275;-69
2022/09/30 17:19:17;;;;;;;101.33;42.60;;;;;;;13.28;86.88;100446.33;5135634;57;1143282;-69
2022/09/30 17:24:23;;;;;;;57.30;25.07;;;;;;;13.17;87.12;100441.59;5132244;57;1145439;-66
2022/09/30 17:29:30;;;;;;;30.10;17.07;;;;;;;13.09;87.48;100445.41;5131367;57;1143279;-68
2022/09/30 17:34:36;;;;;;;34.83;17.37;;;;;;;13.07;87.94;100440.72;5131448;57;1143256;-67
2022/09/30 17:39:42;;;;;;;80.20;35.83;;;;;;;13.01;88.13;100440.28;5132410;57;1143193;-67
2022/09/30 17:44:48;;;;;;;70.63;30.43;;;;;;;13.00;88.57;100442.58;5141797;56;1143208;-65
2022/09/30 17:49:54;;;;;;;168.37;88.37;;;;;;;12.97;88.68;100444.20;5140716;57;1143318;-65
2022/09/30 17:55:00;;;;;;;149.23;82.00;;;;;;;12.88;88.91;100445.48;5140485;56;1145388;-66
2022/09/30 18:00:07;;;;;;;97.57;54.53;;;;;;;12.83;89.00;100453.84;5141927;56;1145012;-68
2022/09/30 18:05:14;;;;;;;56.60;25.80;;;;;;;12.84;89.20;100458.19;5111286;56;1143415;-65
2022/09/30 18:10:20;;;;;;;45.27;20.90;;;;;;;12.77;89.42;100456.22;5085352;57;1143237;-67
2022/09/30 18:15:27;;;;;;;46.20;17.57;;;;;;;12.67;89.75;100465.48;5106979;57;1143175;-65
2022/09/30 18:20:32;;;;;;;42.33;12.63;;;;;;;12.57;89.64;100468.08;5107701;57;1142846;-68
2022/09/30 18:25:41;;;;;;;29.63;12.67;;;;;;;12.38;89.64;100474.61;5110522;57;1143302;-65
2022/09/30 18:30:46;;;;;;;26.20;14.60;;;;;;;12.23;90.20;100483.39;5106793;57;1143191;-68
2022/09/30 18:35:55;;;;;;;40.63;14.77;;;;;;;12.19;90.80;100482.47;5109441;57;1143323;-69
2022/09/30 18:41:00;;;;;;;42.43;15.67;;;;;;;12.22;91.27;100494.96;4923178;59;1143435;-68
2022/09/30 18:46:07;;;;;;;38.80;20.77;;;;;;;12.30;91.56;100490.34;5105750;57;1141192;-67
2022/09/30 18:51:17;;;;;;;44.00;18.10;;;;;;;12.32;91.73;100491.91;5106698;57;1140525;-65
2022/09/30 18:56:22;;;;;;;49.00;20.03;;;;;;;12.31;91.78;100488.05;5109221;57;1141095;-67
2022/09/30 19:01:28;;;;;;;48.83;20.23;;;;;;;12.31;91.96;100488.05;5105820;57;1141287;-66
2022/09/30 19:06:34;;;;;;;61.47;27.93;;;;;;;12.27;91.88;100480.00;5106600;57;1141210;-66
2022/09/30 19:11:41;;;;;;;52.80;28.70;;;;;;;12.16;91.74;100470.31;5122280;57;1141247;-68
2022/09/30 19:16:48;;;;;;;94.00;43.37;;;;;;;12.10;91.64;100471.30;5141603;57;1141142;-67
2022/09/30 19:21:54;;;;;;;52.87;24.77;;;;;;;12.03;91.81;100468.34;5129221;57;1141292;-65
2022/09/30 19:26:59;;;;;;;46.80;20.97;;;;;;;12.05;92.19;100465.57;5121075;57;1141213;-68
2022/09/30 19:32:08;;;;;;;47.13;22.03;;;;;;;11.99;92.20;100469.57;5131470;57;1141213;-68
2022/09/30 19:37:13;;;;;;;47.50;22.57;;;;;;;11.96;92.48;100464.03;5089359;57;1141110;-69
2022/09/30 19:42:20;;;;;;;46.27;20.60;;;;;;;11.89;92.58;100457.59;5094467;57;1141399;-68
2022/09/30 19:47:26;;;;;;;49.47;21.63;;;;;;;11.84;92.71;100468.20;5140400;57;1141366;-66
2022/09/30 19:52:34;;;;;;;163.00;70.27;;;;;;;11.82;92.60;100462.19;5139555;57;1141126;-68
2022/09/30 19:57:41;;;;;;;92.72;44.50;;;;;;;11.80;92.80;100467.61;5150378;57;1143646;-64
2022/09/30 20:02:47;;;;;;;92.73;42.57;;;;;;;11.80;93.08;100457.50;5141151;57;1141249;-67
2022/09/30 20:07:53;;;;;;;90.77;41.10;;;;;;;11.76;93.16;100453.45;5141368;57;1138986;-69
2022/09/30 20:12:59;;;;;;;339.07;138.17;;;;;;;11.74;93.61;100458.00;5136773;57;21190;-68
2022/09/30 20:18:05;;;;;;;114.20;52.47;;;;;;;11.73;93.64;100458.96;5108030;57;1143199;-67
2022/09/30 20:23:11;;;;;;;59.70;28.47;;;;;;;11.76;93.62;100455.61;5048964;57;1145385;-66
2022/09/30 20:28:19;;;;;;;86.70;39.10;;;;;;;11.74;93.62;100456.67;5034816;57;1143238;-66
2022/09/30 20:33:26;;;;;;;71.77;36.07;;;;;;;11.73;93.96;100455.83;5025226;57;1143667;-64
2022/09/30 20:38:33;;;;;;;50.63;26.60;;;;;;;11.71;94.07;100457.77;5023081;58;1143220;-66
2022/09/30 20:43:39;;;;;;;44.40;22.93;;;;;;;11.70;94.29;100461.86;5083123;57;1143252;-67
2022/09/30 20:48:45;;;;;;;46.20;23.20;;;;;;;11.57;93.70;100464.20;5106496;57;1143524;-66
2022/09/30 20:53:53;;;;;;;36.37;19.73;;;;;;;11.52;94.16;100451.81;5117375;57;1143326;-67
2022/09/30 20:59:01;;;;;;;39.37;19.17;;;;;;;11.51;94.09;100449.29;5111708;57;1143376;-65
2022/09/30 21:04:07;;;;;;;41.75;22.05;;;;;;;11.49;94.68;100444.12;5107479;57;1143406;-68
2022/09/30 21:09:13;;;;;;;44.80;25.37;;;;;;;11.51;95.02;100450.13;5107059;57;1143385;-66
2022/09/30 21:14:19;;;;;;;57.07;29.30;;;;;;;11.53;95.11;100461.92;5107739;57;1143197;-67
2022/09/30 21:19:24;;;;;;;72.17;31.10;;;;;;;11.50;95.12;100453.75;5103979;57;1143114;-66
2022/09/30 21:24:31;;;;;;;152.10;74.53;;;;;;;11.44;94.93;100460.89;5039657;57;1143460;-68
2022/09/30 21:29:37;;;;;;;41.57;20.57;;;;;;;11.38;94.97;100460.54;5036784;57;1145448;-67
2022/09/30 21:34:43;;;;;;;27.15;18.00;;;;;;;11.31;95.44;100461.51;4954061;59;1143538;-68
2022/09/30 21:39:48;;;;;;;26.87;17.23;;;;;;;11.26;95.94;100453.97;5079963;57;1143240;-69
2022/09/30 21:44:54;;;;;;;27.53;17.47;;;;;;;11.25;96.02;100454.09;5046490;58;1143207;-66
2022/09/30 21:50:00;;;;;;;19.30;13.77;;;;;;;11.20;96.48;100454.45;5077358;57;1143438;-67
2022/09/30 21:55:06;;;;;;;27.07;15.03;;;;;;;11.20;96.77;100449.64;5095703;57;1143232;-65
2022/09/30 22:00:12;;;;;;;25.90;16.63;;;;;;;11.26;96.78;100453.97;5113189;57;1143245;-69
2022/09/30 22:05:21;;;;;;;26.33;16.83;;;;;;;11.30;96.99;100453.23;5114722;57;1143112;-66
2022/09/30 22:10:27;;;;;;;25.23;17.97;;;;;;;11.27;97.22;100449.51;5109641;57;1143154;-68
2022/09/30 22:15:33;;;;;;;29.70;18.83;;;;;;;11.25;97.13;100448.31;5116848;57;1143212;-69
2022/09/30 22:20:39;;;;;;;25.20;16.93;;;;;;;11.20;97.15;100451.80;5094377;57;1143495;-69
2022/09/30 22:25:44;;;;;;;29.17;18.23;;;;;;;11.22;97.53;100458.30;5106757;57;1143580;-69
2022/09/30 22:30:50;;;;;;;26.43;17.73;;;;;;;11.18;97.43;100456.38;5083358;57;1143212;-69
2022/09/30 22:41:20;;;;;;;35.60;20.10;;;;;;;11.08;98.12;100453.28;5098605;57;1143244;-69
2022/09/30 22:46:28;;;;;;;32.37;19.90;;;;;;;11.00;98.42;100447.78;5113880;57;1143014;-69
2022/09/30 22:51:34;;;;;;;26.13;17.07;;;;;;;11.00;98.42;100447.78;5114098;57;1143310;-68
2022/09/30 22:56:40;;;;;;;30.23;19.87;;;;;;;11.04;98.55;100443.42;5115691;58;1143289;-67
2022/09/30 23:01:47;;;;;;;39.07;20.53;;;;;;;11.02;98.34;100451.96;5114904;58;1143120;-67
2022/09/30 23:06:55;;;;;;;32.07;20.43;;;;;;;10.97;98.41;100448.02;5083811;58;1143308;-66
2022/09/30 23:12:02;;;;;;;29.70;18.37;;;;;;;10.90;98.54;100452.95;4969834;59;1141054;-68
2022/09/30 23:17:08;;;;;;;30.87;19.70;;;;;;;10.85;98.59;100452.47;5134601;57;1141196;-69
2022/09/30 23:22:14;;;;;;;56.93;29.03;;;;;;;10.87;98.87;100453.19;5127366;57;1141493;-68
2022/09/30 23:27:20;;;;;;;38.33;23.20;;;;;;;10.92;99.14;100439.96;5146715;56;1141441;-69
2022/09/30 23:32:27;;;;;;;49.30;28.33;;;;;;;10.96;99.05;100439.23;5111444;57;1141077;-71